Etusivu
METAR-TAF:

METAR-TAF

Lentoasemat :

Arvidsjaur, Ruotsi

Leveyspiiri: 65-35-25N, Pituuspiiri: 019-16-55E, korkeus merenpinnasta: 379 m

Tämänhetkinen sää

Tämä raportti tehtiin 15 minuuttia sitten, kello 09.50 UTC
Tuuli 7 kn lännestä
Lämpötila 8°C
Kosteus 42%
Ilmanpaine 1015 hPa
Näkyvyys 10 km tai enemmän

METAR: ESNX 270950Z AUTO 27007KT 9999 FEW043/// 08/M04 Q1015

Aika: 12:05 (10:05 UTC)

Sääennuste

Tämä raportti tehtiin 16 tuntia ja 35 minuuttia sitten, kello 17.30 UTC
Ennuste voimassa 26. päivästä klo 18 UTC - 26. päivään klo 20 UTC
Tuuli 5 kn idästä
Näkyvyys 10 km tai enemmän
ei pilviä alle 1500 m:ssä eikä cumulonimbus-pilviä

TAF: ESNX 261730Z 2618/2620 09005KT CAVOK

Säähavainnot ja -ennusteet yli 4000 lentoasemalta (METAR- ja TAF-raportit).

Käytössä olevat sääasemat on merkitty karttaan keltaisilla ja punaisilla pisteillä.

Aseta hiiri pisteen päälle nähdäksesi sääaseman nimen.

Klikkaa sitten nähdäksesi säähavainnot ja -ennusteet.

Kartan vaihtaminen: klikkaa mustalla rastilla varustettuja vihreitä pisteitä, niin voit zoomata sisään; viivalla varustettua vihreää pistettä, niin voit zoomata ulos tai vihreitä nuolia, niin pääset viereisille kartoille.


METAR-TAF: